sensor_id;sensor_type;location;lat;lon;timestamp;P1;durP1;ratioP1;P2;durP2;ratioP2
1402;SDS011;696;48.546;9.896;2022-11-11T00:00:24;2.38;;;1.90;;
1402;SDS011;696;48.546;9.896;2022-11-11T00:02:49;2.88;;;1.98;;
1402;SDS011;696;48.546;9.896;2022-11-11T00:05:15;3.03;;;2.03;;
1402;SDS011;696;48.546;9.896;2022-11-11T00:07:41;11.38;;;2.20;;
1402;SDS011;696;48.546;9.896;2022-11-11T00:10:07;2.90;;;2.15;;
1402;SDS011;696;48.546;9.896;2022-11-11T00:12:33;2.80;;;2.20;;
1402;SDS011;696;48.546;9.896;2022-11-11T00:14:58;3.25;;;1.95;;
1402;SDS011;696;48.546;9.896;2022-11-11T00:17:23;3.10;;;2.13;;
1402;SDS011;696;48.546;9.896;2022-11-11T00:20:08;2.58;;;1.92;;
1402;SDS011;696;48.546;9.896;2022-11-11T00:22:53;2.75;;;2.10;;
1402;SDS011;696;48.546;9.896;2022-11-11T00:25:37;2.78;;;2.03;;
1402;SDS011;696;48.546;9.896;2022-11-11T00:28:02;3.25;;;2.33;;
1402;SDS011;696;48.546;9.896;2022-11-11T00:30:27;2.22;;;1.83;;
1402;SDS011;696;48.546;9.896;2022-11-11T00:32:53;5.28;;;2.42;;
1402;SDS011;696;48.546;9.896;2022-11-11T00:35:19;3.03;;;2.08;;
1402;SDS011;696;48.546;9.896;2022-11-11T00:38:07;2.22;;;2.03;;
1402;SDS011;696;48.546;9.896;2022-11-11T00:40:33;2.50;;;1.98;;
1402;SDS011;696;48.546;9.896;2022-11-11T00:42:58;3.65;;;2.45;;
1402;SDS011;696;48.546;9.896;2022-11-11T00:45:24;5.07;;;2.28;;
1402;SDS011;696;48.546;9.896;2022-11-11T00:47:49;2.30;;;1.95;;
1402;SDS011;696;48.546;9.896;2022-11-11T00:50:33;3.22;;;1.73;;
1402;SDS011;696;48.546;9.896;2022-11-11T00:53:18;2.45;;;2.17;;
1402;SDS011;696;48.546;9.896;2022-11-11T00:55:48;6.63;;;1.85;;
1402;SDS011;696;48.546;9.896;2022-11-11T00:58:13;2.95;;;2.42;;
1402;SDS011;696;48.546;9.896;2022-11-11T01:00:41;1.92;;;1.70;;
1402;SDS011;696;48.546;9.896;2022-11-11T01:03:06;4.43;;;2.25;;
1402;SDS011;696;48.546;9.896;2022-11-11T01:05:32;2.83;;;2.25;;
1402;SDS011;696;48.546;9.896;2022-11-11T01:07:57;9.60;;;2.33;;
1402;SDS011;696;48.546;9.896;2022-11-11T01:10:22;3.13;;;2.28;;
1402;SDS011;696;48.546;9.896;2022-11-11T01:13:04;3.85;;;2.42;;
1402;SDS011;696;48.546;9.896;2022-11-11T01:15:36;2.22;;;2.03;;
1402;SDS011;696;48.546;9.896;2022-11-11T01:18:01;3.53;;;2.20;;
1402;SDS011;696;48.546;9.896;2022-11-11T01:20:27;4.78;;;2.38;;
1402;SDS011;696;48.546;9.896;2022-11-11T01:22:52;2.92;;;2.05;;
1402;SDS011;696;48.546;9.896;2022-11-11T01:25:18;3.30;;;2.53;;
1402;SDS011;696;48.546;9.896;2022-11-11T01:27:43;4.55;;;2.40;;
1402;SDS011;696;48.546;9.896;2022-11-11T01:30:08;3.33;;;2.45;;
1402;SDS011;696;48.546;9.896;2022-11-11T01:32:37;8.63;;;2.60;;
1402;SDS011;696;48.546;9.896;2022-11-11T01:35:03;5.25;;;2.42;;
1402;SDS011;696;48.546;9.896;2022-11-11T01:37:31;4.55;;;2.45;;
1402;SDS011;696;48.546;9.896;2022-11-11T01:39:57;3.10;;;2.42;;
1402;SDS011;696;48.546;9.896;2022-11-11T01:42:22;7.20;;;2.20;;
1402;SDS011;696;48.546;9.896;2022-11-11T01:44:48;3.78;;;2.60;;
1402;SDS011;696;48.546;9.896;2022-11-11T01:47:13;4.65;;;2.80;;
1402;SDS011;696;48.546;9.896;2022-11-11T01:49:48;7.45;;;2.65;;
1402;SDS011;696;48.546;9.896;2022-11-11T01:55:02;3.25;;;2.20;;
1402;SDS011;696;48.546;9.896;2022-11-11T01:57:31;7.63;;;2.45;;
1402;SDS011;696;48.546;9.896;2022-11-11T02:00:04;2.60;;;2.10;;
1402;SDS011;696;48.546;9.896;2022-11-11T02:02:39;3.05;;;2.50;;
1402;SDS011;696;48.546;9.896;2022-11-11T02:05:09;3.40;;;2.28;;
1402;SDS011;696;48.546;9.896;2022-11-11T02:07:58;4.22;;;2.53;;
1402;SDS011;696;48.546;9.896;2022-11-11T02:10:25;2.20;;;2.00;;
1402;SDS011;696;48.546;9.896;2022-11-11T02:12:52;4.28;;;2.58;;
1402;SDS011;696;48.546;9.896;2022-11-11T02:15:36;3.13;;;2.47;;
1402;SDS011;696;48.546;9.896;2022-11-11T02:18:02;6.10;;;2.38;;
1402;SDS011;696;48.546;9.896;2022-11-11T02:20:30;3.85;;;2.55;;
1402;SDS011;696;48.546;9.896;2022-11-11T02:25:24;4.32;;;2.75;;
1402;SDS011;696;48.546;9.896;2022-11-11T02:27:51;3.65;;;2.60;;
1402;SDS011;696;48.546;9.896;2022-11-11T02:30:24;2.85;;;2.38;;
1402;SDS011;696;48.546;9.896;2022-11-11T02:32:50;2.28;;;1.85;;
1402;SDS011;696;48.546;9.896;2022-11-11T02:35:20;3.20;;;2.35;;
1402;SDS011;696;48.546;9.896;2022-11-11T02:37:57;3.60;;;2.42;;
1402;SDS011;696;48.546;9.896;2022-11-11T02:45:22;3.25;;;2.40;;
1402;SDS011;696;48.546;9.896;2022-11-11T02:47:48;3.50;;;2.22;;
1402;SDS011;696;48.546;9.896;2022-11-11T02:50:14;3.78;;;2.63;;
1402;SDS011;696;48.546;9.896;2022-11-11T02:52:40;4.97;;;2.53;;
1402;SDS011;696;48.546;9.896;2022-11-11T02:55:05;6.63;;;2.55;;
1402;SDS011;696;48.546;9.896;2022-11-11T02:57:31;5.70;;;2.60;;
1402;SDS011;696;48.546;9.896;2022-11-11T03:00:00;2.95;;;2.45;;
1402;SDS011;696;48.546;9.896;2022-11-11T03:02:26;2.72;;;2.40;;
1402;SDS011;696;48.546;9.896;2022-11-11T03:04:53;7.68;;;2.63;;
1402;SDS011;696;48.546;9.896;2022-11-11T03:07:19;3.42;;;2.80;;
1402;SDS011;696;48.546;9.896;2022-11-11T03:09:45;6.57;;;3.13;;
1402;SDS011;696;48.546;9.896;2022-11-11T03:12:10;4.38;;;2.83;;
1402;SDS011;696;48.546;9.896;2022-11-11T03:14:35;5.57;;;3.00;;
1402;SDS011;696;48.546;9.896;2022-11-11T03:17:01;4.00;;;2.72;;
1402;SDS011;696;48.546;9.896;2022-11-11T03:19:45;7.70;;;3.50;;
1402;SDS011;696;48.546;9.896;2022-11-11T03:22:10;7.28;;;3.60;;
1402;SDS011;696;48.546;9.896;2022-11-11T03:24:35;4.43;;;3.00;;
1402;SDS011;696;48.546;9.896;2022-11-11T03:27:22;4.25;;;2.88;;
1402;SDS011;696;48.546;9.896;2022-11-11T03:29:47;4.90;;;3.13;;
1402;SDS011;696;48.546;9.896;2022-11-11T03:32:13;4.25;;;3.03;;
1402;SDS011;696;48.546;9.896;2022-11-11T03:34:38;6.18;;;2.75;;
1402;SDS011;696;48.546;9.896;2022-11-11T03:37:08;3.58;;;2.95;;
1402;SDS011;696;48.546;9.896;2022-11-11T03:39:53;4.60;;;3.10;;
1402;SDS011;696;48.546;9.896;2022-11-11T03:42:18;4.88;;;3.38;;
1402;SDS011;696;48.546;9.896;2022-11-11T03:44:43;8.23;;;4.60;;
1402;SDS011;696;48.546;9.896;2022-11-11T03:47:09;5.82;;;4.22;;
1402;SDS011;696;48.546;9.896;2022-11-11T03:49:34;8.13;;;4.18;;
1402;SDS011;696;48.546;9.896;2022-11-11T03:51:59;5.55;;;3.28;;
1402;SDS011;696;48.546;9.896;2022-11-11T03:54:25;7.95;;;3.97;;
1402;SDS011;696;48.546;9.896;2022-11-11T03:56:50;4.72;;;3.70;;
1402;SDS011;696;48.546;9.896;2022-11-11T03:59:15;4.45;;;3.00;;
1402;SDS011;696;48.546;9.896;2022-11-11T04:01:43;4.00;;;3.10;;
1402;SDS011;696;48.546;9.896;2022-11-11T04:04:28;6.15;;;3.45;;
1402;SDS011;696;48.546;9.896;2022-11-11T04:07:12;4.55;;;3.30;;
1402;SDS011;696;48.546;9.896;2022-11-11T04:09:56;6.65;;;3.20;;
1402;SDS011;696;48.546;9.896;2022-11-11T04:12:40;5.25;;;3.03;;
1402;SDS011;696;48.546;9.896;2022-11-11T04:15:25;6.68;;;3.60;;
1402;SDS011;696;48.546;9.896;2022-11-11T04:18:09;6.30;;;3.47;;
1402;SDS011;696;48.546;9.896;2022-11-11T04:20:34;4.22;;;3.17;;
1402;SDS011;696;48.546;9.896;2022-11-11T04:23:18;6.25;;;2.88;;
1402;SDS011;696;48.546;9.896;2022-11-11T04:25:44;9.02;;;3.35;;
1402;SDS011;696;48.546;9.896;2022-11-11T04:31:01;5.82;;;3.60;;
1402;SDS011;696;48.546;9.896;2022-11-11T04:33:27;8.23;;;3.40;;
1402;SDS011;696;48.546;9.896;2022-11-11T04:35:52;3.85;;;3.28;;
1402;SDS011;696;48.546;9.896;2022-11-11T04:38:18;4.03;;;3.13;;
1402;SDS011;696;48.546;9.896;2022-11-11T04:41:02;4.82;;;3.22;;
1402;SDS011;696;48.546;9.896;2022-11-11T04:43:27;4.55;;;3.20;;
1402;SDS011;696;48.546;9.896;2022-11-11T04:45:56;11.38;;;3.72;;
1402;SDS011;696;48.546;9.896;2022-11-11T04:48:22;4.80;;;3.53;;
1402;SDS011;696;48.546;9.896;2022-11-11T04:50:48;5.63;;;3.10;;
1402;SDS011;696;48.546;9.896;2022-11-11T04:53:13;5.55;;;3.53;;
1402;SDS011;696;48.546;9.896;2022-11-11T04:55:40;6.85;;;3.42;;
1402;SDS011;696;48.546;9.896;2022-11-11T04:58:26;7.90;;;4.10;;
1402;SDS011;696;48.546;9.896;2022-11-11T05:00:55;4.32;;;3.55;;
1402;SDS011;696;48.546;9.896;2022-11-11T05:03:20;4.88;;;3.63;;
1402;SDS011;696;48.546;9.896;2022-11-11T05:08:37;9.07;;;3.38;;
1402;SDS011;696;48.546;9.896;2022-11-11T05:14:01;3.92;;;3.05;;
1402;SDS011;696;48.546;9.896;2022-11-11T05:16:50;3.92;;;3.00;;
1402;SDS011;696;48.546;9.896;2022-11-11T05:19:35;5.57;;;3.15;;
1402;SDS011;696;48.546;9.896;2022-11-11T05:22:36;5.00;;;3.65;;
1402;SDS011;696;48.546;9.896;2022-11-11T05:25:03;4.70;;;3.05;;
1402;SDS011;696;48.546;9.896;2022-11-11T05:27:48;4.50;;;3.33;;
1402;SDS011;696;48.546;9.896;2022-11-11T05:30:14;5.30;;;3.13;;
1402;SDS011;696;48.546;9.896;2022-11-11T05:32:40;7.03;;;3.10;;
1402;SDS011;696;48.546;9.896;2022-11-11T05:35:06;5.82;;;3.47;;
1402;SDS011;696;48.546;9.896;2022-11-11T05:37:32;4.45;;;2.97;;
1402;SDS011;696;48.546;9.896;2022-11-11T05:39:58;7.85;;;3.10;;
1402;SDS011;696;48.546;9.896;2022-11-11T05:42:23;7.28;;;3.78;;
1402;SDS011;696;48.546;9.896;2022-11-11T05:44:48;4.63;;;2.97;;
1402;SDS011;696;48.546;9.896;2022-11-11T05:47:14;3.25;;;2.90;;
1402;SDS011;696;48.546;9.896;2022-11-11T05:49:39;3.58;;;2.88;;
1402;SDS011;696;48.546;9.896;2022-11-11T05:52:05;8.57;;;2.97;;
1402;SDS011;696;48.546;9.896;2022-11-11T05:54:31;6.20;;;3.05;;
1402;SDS011;696;48.546;9.896;2022-11-11T05:56:56;7.38;;;3.10;;
1402;SDS011;696;48.546;9.896;2022-11-11T05:59:22;3.15;;;2.65;;
1402;SDS011;696;48.546;9.896;2022-11-11T06:01:47;5.40;;;3.03;;
1402;SDS011;696;48.546;9.896;2022-11-11T06:04:12;4.88;;;3.03;;
1402;SDS011;696;48.546;9.896;2022-11-11T06:06:38;5.40;;;3.08;;
1402;SDS011;696;48.546;9.896;2022-11-11T06:09:03;5.60;;;3.42;;
1402;SDS011;696;48.546;9.896;2022-11-11T06:11:29;7.30;;;3.08;;
1402;SDS011;696;48.546;9.896;2022-11-11T06:13:55;6.60;;;3.42;;
1402;SDS011;696;48.546;9.896;2022-11-11T06:16:20;4.97;;;2.80;;
1402;SDS011;696;48.546;9.896;2022-11-11T06:18:46;3.83;;;2.80;;
1402;SDS011;696;48.546;9.896;2022-11-11T06:21:11;5.63;;;3.03;;
1402;SDS011;696;48.546;9.896;2022-11-11T06:23:38;6.78;;;3.53;;
1402;SDS011;696;48.546;9.896;2022-11-11T06:26:03;7.75;;;3.15;;
1402;SDS011;696;48.546;9.896;2022-11-11T06:28:38;5.43;;;3.10;;
1402;SDS011;696;48.546;9.896;2022-11-11T06:31:21;5.70;;;3.17;;
1402;SDS011;696;48.546;9.896;2022-11-11T06:33:50;8.65;;;3.95;;
1402;SDS011;696;48.546;9.896;2022-11-11T06:36:16;4.43;;;3.13;;
1402;SDS011;696;48.546;9.896;2022-11-11T06:38:42;5.07;;;3.33;;
1402;SDS011;696;48.546;9.896;2022-11-11T06:41:08;10.93;;;3.55;;
1402;SDS011;696;48.546;9.896;2022-11-11T06:43:36;3.97;;;3.10;;
1402;SDS011;696;48.546;9.896;2022-11-11T06:46:02;4.20;;;3.05;;
1402;SDS011;696;48.546;9.896;2022-11-11T06:48:28;9.77;;;3.38;;
1402;SDS011;696;48.546;9.896;2022-11-11T06:50:53;13.60;;;3.33;;
1402;SDS011;696;48.546;9.896;2022-11-11T06:53:20;4.57;;;2.80;;
1402;SDS011;696;48.546;9.896;2022-11-11T06:55:46;4.40;;;3.03;;
1402;SDS011;696;48.546;9.896;2022-11-11T06:58:13;4.28;;;3.20;;
1402;SDS011;696;48.546;9.896;2022-11-11T07:00:42;3.22;;;2.92;;
1402;SDS011;696;48.546;9.896;2022-11-11T07:03:10;3.17;;;2.72;;
1402;SDS011;696;48.546;9.896;2022-11-11T07:05:36;5.45;;;3.17;;
1402;SDS011;696;48.546;9.896;2022-11-11T07:08:02;3.97;;;2.58;;
1402;SDS011;696;48.546;9.896;2022-11-11T07:10:29;7.40;;;4.15;;
1402;SDS011;696;48.546;9.896;2022-11-11T07:12:55;11.55;;;6.10;;
1402;SDS011;696;48.546;9.896;2022-11-11T07:15:20;16.13;;;9.15;;
1402;SDS011;696;48.546;9.896;2022-11-11T07:17:46;15.55;;;9.13;;
1402;SDS011;696;48.546;9.896;2022-11-11T07:20:11;11.43;;;6.90;;
1402;SDS011;696;48.546;9.896;2022-11-11T07:22:36;7.10;;;4.53;;
1402;SDS011;696;48.546;9.896;2022-11-11T07:25:02;4.53;;;3.55;;
1402;SDS011;696;48.546;9.896;2022-11-11T07:27:28;7.00;;;3.55;;
1402;SDS011;696;48.546;9.896;2022-11-11T07:29:54;3.90;;;3.03;;
1402;SDS011;696;48.546;9.896;2022-11-11T07:32:19;3.58;;;3.13;;
1402;SDS011;696;48.546;9.896;2022-11-11T07:34:44;5.25;;;3.17;;
1402;SDS011;696;48.546;9.896;2022-11-11T07:37:10;4.45;;;2.83;;
1402;SDS011;696;48.546;9.896;2022-11-11T07:39:35;6.32;;;4.05;;
1402;SDS011;696;48.546;9.896;2022-11-11T07:42:00;8.32;;;4.13;;
1402;SDS011;696;48.546;9.896;2022-11-11T07:44:26;9.75;;;3.80;;
1402;SDS011;696;48.546;9.896;2022-11-11T07:46:51;6.53;;;4.45;;
1402;SDS011;696;48.546;9.896;2022-11-11T07:49:17;8.60;;;3.75;;
1402;SDS011;696;48.546;9.896;2022-11-11T07:51:42;5.22;;;3.47;;
1402;SDS011;696;48.546;9.896;2022-11-11T07:54:08;6.85;;;3.92;;
1402;SDS011;696;48.546;9.896;2022-11-11T07:56:33;4.80;;;3.10;;
1402;SDS011;696;48.546;9.896;2022-11-11T07:58:58;4.15;;;2.22;;
1402;SDS011;696;48.546;9.896;2022-11-11T08:01:24;4.85;;;2.75;;
1402;SDS011;696;48.546;9.896;2022-11-11T08:03:49;3.70;;;2.45;;
1402;SDS011;696;48.546;9.896;2022-11-11T08:06:18;2.55;;;2.25;;
1402;SDS011;696;48.546;9.896;2022-11-11T08:08:44;3.03;;;2.40;;
1402;SDS011;696;48.546;9.896;2022-11-11T08:11:10;3.28;;;2.50;;
1402;SDS011;696;48.546;9.896;2022-11-11T08:13:36;4.07;;;2.92;;
1402;SDS011;696;48.546;9.896;2022-11-11T08:16:04;5.93;;;4.22;;
1402;SDS011;696;48.546;9.896;2022-11-11T08:18:34;8.35;;;4.82;;
1402;SDS011;696;48.546;9.896;2022-11-11T08:20:59;6.85;;;5.47;;
1402;SDS011;696;48.546;9.896;2022-11-11T08:23:25;10.57;;;6.18;;
1402;SDS011;696;48.546;9.896;2022-11-11T08:26:03;12.05;;;7.55;;
1402;SDS011;696;48.546;9.896;2022-11-11T08:28:31;19.05;;;8.30;;
1402;SDS011;696;48.546;9.896;2022-11-11T08:30:57;18.60;;;7.13;;
1402;SDS011;696;48.546;9.896;2022-11-11T08:33:23;10.07;;;6.25;;
1402;SDS011;696;48.546;9.896;2022-11-11T08:35:49;9.50;;;5.90;;
1402;SDS011;696;48.546;9.896;2022-11-11T08:38:17;13.07;;;6.25;;
1402;SDS011;696;48.546;9.896;2022-11-11T08:40:43;10.75;;;6.75;;
1402;SDS011;696;48.546;9.896;2022-11-11T08:43:08;13.45;;;6.47;;
1402;SDS011;696;48.546;9.896;2022-11-11T08:45:33;18.42;;;7.75;;
1402;SDS011;696;48.546;9.896;2022-11-11T08:47:59;10.38;;;7.05;;
1402;SDS011;696;48.546;9.896;2022-11-11T08:50:24;17.33;;;7.55;;
1402;SDS011;696;48.546;9.896;2022-11-11T08:52:50;15.90;;;7.80;;
1402;SDS011;696;48.546;9.896;2022-11-11T08:55:16;17.25;;;8.25;;
1402;SDS011;696;48.546;9.896;2022-11-11T08:57:42;14.60;;;7.72;;
1402;SDS011;696;48.546;9.896;2022-11-11T09:00:07;12.93;;;7.55;;
1402;SDS011;696;48.546;9.896;2022-11-11T09:02:34;12.75;;;7.70;;
1402;SDS011;696;48.546;9.896;2022-11-11T09:04:59;13.18;;;8.10;;
1402;SDS011;696;48.546;9.896;2022-11-11T09:07:25;11.63;;;8.57;;
1402;SDS011;696;48.546;9.896;2022-11-11T09:09:50;14.30;;;8.65;;
1402;SDS011;696;48.546;9.896;2022-11-11T09:12:15;13.70;;;8.90;;
1402;SDS011;696;48.546;9.896;2022-11-11T09:14:41;14.23;;;8.20;;
1402;SDS011;696;48.546;9.896;2022-11-11T09:17:06;12.57;;;7.75;;
1402;SDS011;696;48.546;9.896;2022-11-11T09:19:31;12.55;;;7.43;;
1402;SDS011;696;48.546;9.896;2022-11-11T09:21:57;11.20;;;7.90;;
1402;SDS011;696;48.546;9.896;2022-11-11T09:24:22;12.07;;;7.80;;
1402;SDS011;696;48.546;9.896;2022-11-11T09:26:48;15.02;;;10.60;;
1402;SDS011;696;48.546;9.896;2022-11-11T09:29:13;18.83;;;10.27;;
1402;SDS011;696;48.546;9.896;2022-11-11T09:31:39;15.85;;;10.88;;
1402;SDS011;696;48.546;9.896;2022-11-11T09:34:04;21.10;;;12.38;;
1402;SDS011;696;48.546;9.896;2022-11-11T09:36:31;15.68;;;10.32;;
1402;SDS011;696;48.546;9.896;2022-11-11T09:38:57;16.30;;;8.65;;
1402;SDS011;696;48.546;9.896;2022-11-11T09:41:24;14.88;;;8.60;;
1402;SDS011;696;48.546;9.896;2022-11-11T09:43:54;14.70;;;8.50;;
1402;SDS011;696;48.546;9.896;2022-11-11T09:54:39;16.23;;;8.93;;
1402;SDS011;696;48.546;9.896;2022-11-11T09:57:13;13.13;;;8.40;;
1402;SDS011;696;48.546;9.896;2022-11-11T09:59:51;18.23;;;9.40;;
1402;SDS011;696;48.546;9.896;2022-11-11T10:02:22;12.85;;;8.85;;
1402;SDS011;696;48.546;9.896;2022-11-11T10:04:54;11.98;;;7.93;;
1402;SDS011;696;48.546;9.896;2022-11-11T10:09:56;11.35;;;8.18;;
1402;SDS011;696;48.546;9.896;2022-11-11T10:12:32;17.27;;;7.63;;
1402;SDS011;696;48.546;9.896;2022-11-11T10:15:02;15.20;;;7.07;;
1402;SDS011;696;48.546;9.896;2022-11-11T10:22:32;10.10;;;7.35;;
1402;SDS011;696;48.546;9.896;2022-11-11T10:27:28;16.80;;;10.00;;
1402;SDS011;696;48.546;9.896;2022-11-11T10:29:53;18.55;;;10.27;;
1402;SDS011;696;48.546;9.896;2022-11-11T10:34:49;14.68;;;10.38;;
1402;SDS011;696;48.546;9.896;2022-11-11T10:37:18;15.43;;;9.45;;
1402;SDS011;696;48.546;9.896;2022-11-11T10:42:30;16.17;;;9.63;;
1402;SDS011;696;48.546;9.896;2022-11-11T10:44:58;15.00;;;10.63;;
1402;SDS011;696;48.546;9.896;2022-11-11T10:52:32;13.20;;;8.93;;
1402;SDS011;696;48.546;9.896;2022-11-11T10:55:05;12.90;;;8.73;;
1402;SDS011;696;48.546;9.896;2022-11-11T10:57:36;12.18;;;8.25;;
1402;SDS011;696;48.546;9.896;2022-11-11T11:00:10;11.75;;;8.25;;
1402;SDS011;696;48.546;9.896;2022-11-11T11:08:05;12.50;;;8.20;;
1402;SDS011;696;48.546;9.896;2022-11-11T11:10:34;10.95;;;7.32;;
1402;SDS011;696;48.546;9.896;2022-11-11T11:13:15;12.85;;;8.18;;
1402;SDS011;696;48.546;9.896;2022-11-11T11:16:02;11.98;;;8.02;;
1402;SDS011;696;48.546;9.896;2022-11-11T11:18:31;10.07;;;8.05;;
1402;SDS011;696;48.546;9.896;2022-11-11T11:21:00;12.20;;;8.40;;
1402;SDS011;696;48.546;9.896;2022-11-11T11:23:34;15.38;;;9.48;;
1402;SDS011;696;48.546;9.896;2022-11-11T11:28:27;12.20;;;7.80;;
1402;SDS011;696;48.546;9.896;2022-11-11T11:30:57;12.10;;;8.77;;
1402;SDS011;696;48.546;9.896;2022-11-11T11:36:15;14.98;;;9.05;;
1402;SDS011;696;48.546;9.896;2022-11-11T11:38:42;12.35;;;9.45;;
1402;SDS011;696;48.546;9.896;2022-11-11T11:41:10;13.05;;;8.82;;
1402;SDS011;696;48.546;9.896;2022-11-11T11:43:43;14.80;;;8.33;;
1402;SDS011;696;48.546;9.896;2022-11-11T11:46:19;14.82;;;8.82;;
1402;SDS011;696;48.546;9.896;2022-11-11T11:51:51;11.80;;;8.32;;
1402;SDS011;696;48.546;9.896;2022-11-11T12:00:30;10.13;;;7.63;;
1402;SDS011;696;48.546;9.896;2022-11-11T12:14:25;10.15;;;7.50;;
1402;SDS011;696;48.546;9.896;2022-11-11T12:17:00;11.07;;;8.15;;
1402;SDS011;696;48.546;9.896;2022-11-11T12:36:17;13.82;;;8.93;;
1402;SDS011;696;48.546;9.896;2022-11-11T12:38:57;12.77;;;8.55;;
1402;SDS011;696;48.546;9.896;2022-11-11T12:44:07;12.80;;;8.63;;
1402;SDS011;696;48.546;9.896;2022-11-11T12:46:50;10.88;;;8.10;;
1402;SDS011;696;48.546;9.896;2022-11-11T12:49:57;14.77;;;8.52;;
1402;SDS011;696;48.546;9.896;2022-11-11T12:57:30;11.32;;;8.40;;
1402;SDS011;696;48.546;9.896;2022-11-11T13:00:22;12.07;;;8.45;;
1402;SDS011;696;48.546;9.896;2022-11-11T13:14:29;14.25;;;9.60;;
1402;SDS011;696;48.546;9.896;2022-11-11T13:16:58;15.23;;;10.43;;
1402;SDS011;696;48.546;9.896;2022-11-11T13:19:37;19.50;;;9.48;;
1402;SDS011;696;48.546;9.896;2022-11-11T13:24:50;17.35;;;9.45;;
1402;SDS011;696;48.546;9.896;2022-11-11T13:38:35;12.65;;;7.97;;
1402;SDS011;696;48.546;9.896;2022-11-11T13:41:04;10.80;;;8.05;;
1402;SDS011;696;48.546;9.896;2022-11-11T13:43:31;10.55;;;7.22;;
1402;SDS011;696;48.546;9.896;2022-11-11T13:45:59;10.02;;;7.40;;
1402;SDS011;696;48.546;9.896;2022-11-11T13:48:37;9.80;;;7.07;;
1402;SDS011;696;48.546;9.896;2022-11-11T13:51:18;8.35;;;6.82;;
1402;SDS011;696;48.546;9.896;2022-11-11T13:54:03;8.23;;;6.55;;
1402;SDS011;696;48.546;9.896;2022-11-11T13:56:39;7.95;;;6.68;;
1402;SDS011;696;48.546;9.896;2022-11-11T13:59:07;8.23;;;6.68;;
1402;SDS011;696;48.546;9.896;2022-11-11T14:01:38;8.77;;;7.07;;
1402;SDS011;696;48.546;9.896;2022-11-11T14:04:08;10.07;;;6.65;;
1402;SDS011;696;48.546;9.896;2022-11-11T14:09:12;10.80;;;7.03;;
1402;SDS011;696;48.546;9.896;2022-11-11T14:12:20;9.52;;;7.57;;
1402;SDS011;696;48.546;9.896;2022-11-11T14:15:31;10.80;;;7.47;;
1402;SDS011;696;48.546;9.896;2022-11-11T14:17:54;9.02;;;7.75;;
1402;SDS011;696;48.546;9.896;2022-11-11T14:22:54;10.05;;;7.70;;
1402;SDS011;696;48.546;9.896;2022-11-11T14:25:21;13.55;;;8.55;;
1402;SDS011;696;48.546;9.896;2022-11-11T14:27:49;16.38;;;11.10;;
1402;SDS011;696;48.546;9.896;2022-11-11T14:30:28;21.35;;;13.55;;
1402;SDS011;696;48.546;9.896;2022-11-11T14:33:05;35.92;;;16.73;;
1402;SDS011;696;48.546;9.896;2022-11-11T14:57:39;47.22;;;19.27;;
1402;SDS011;696;48.546;9.896;2022-11-11T15:00:27;28.85;;;15.60;;
1402;SDS011;696;48.546;9.896;2022-11-11T15:19:28;40.20;;;18.38;;
1402;SDS011;696;48.546;9.896;2022-11-11T15:22:02;24.95;;;15.80;;
1402;SDS011;696;48.546;9.896;2022-11-11T15:24:42;23.98;;;14.95;;
1402;SDS011;696;48.546;9.896;2022-11-11T15:37:37;23.38;;;15.15;;
1402;SDS011;696;48.546;9.896;2022-11-11T15:40:03;33.40;;;15.52;;
1402;SDS011;696;48.546;9.896;2022-11-11T15:42:34;30.45;;;16.23;;
1402;SDS011;696;48.546;9.896;2022-11-11T15:45:18;30.58;;;16.02;;
1402;SDS011;696;48.546;9.896;2022-11-11T15:47:46;30.02;;;15.95;;
1402;SDS011;696;48.546;9.896;2022-11-11T15:50:26;24.50;;;15.82;;
1402;SDS011;696;48.546;9.896;2022-11-11T15:52:56;25.20;;;15.83;;
1402;SDS011;696;48.546;9.896;2022-11-11T15:55:23;23.10;;;14.68;;
1402;SDS011;696;48.546;9.896;2022-11-11T15:57:51;27.20;;;17.27;;
1402;SDS011;696;48.546;9.896;2022-11-11T16:02:48;28.13;;;15.68;;
1402;SDS011;696;48.546;9.896;2022-11-11T16:05:19;36.33;;;22.08;;
1402;SDS011;696;48.546;9.896;2022-11-11T16:07:46;29.27;;;19.20;;
1402;SDS011;696;48.546;9.896;2022-11-11T16:10:14;29.23;;;17.25;;
1402;SDS011;696;48.546;9.896;2022-11-11T16:12:47;29.75;;;15.77;;
1402;SDS011;696;48.546;9.896;2022-11-11T16:18:21;25.60;;;15.95;;
1402;SDS011;696;48.546;9.896;2022-11-11T16:21:33;29.52;;;18.17;;
1402;SDS011;696;48.546;9.896;2022-11-11T16:23:42;37.67;;;17.43;;
1402;SDS011;696;48.546;9.896;2022-11-11T16:26:07;34.17;;;16.73;;
1402;SDS011;696;48.546;9.896;2022-11-11T16:28:52;28.92;;;16.85;;
1402;SDS011;696;48.546;9.896;2022-11-11T16:33:50;23.23;;;14.43;;
1402;SDS011;696;48.546;9.896;2022-11-11T16:36:15;23.52;;;14.55;;
1402;SDS011;696;48.546;9.896;2022-11-11T16:38:41;20.55;;;14.07;;
1402;SDS011;696;48.546;9.896;2022-11-11T16:41:24;25.02;;;15.35;;
1402;SDS011;696;48.546;9.896;2022-11-11T16:43:50;22.23;;;14.37;;
1402;SDS011;696;48.546;9.896;2022-11-11T16:49:11;25.95;;;14.23;;
1402;SDS011;696;48.546;9.896;2022-11-11T16:51:38;27.60;;;15.45;;
1402;SDS011;696;48.546;9.896;2022-11-11T16:54:07;21.73;;;14.93;;
1402;SDS011;696;48.546;9.896;2022-11-11T16:56:34;26.88;;;14.55;;
1402;SDS011;696;48.546;9.896;2022-11-11T16:59:08;24.73;;;13.93;;
1402;SDS011;696;48.546;9.896;2022-11-11T17:01:40;22.05;;;14.00;;
1402;SDS011;696;48.546;9.896;2022-11-11T17:04:07;25.83;;;14.07;;
1402;SDS011;696;48.546;9.896;2022-11-11T17:06:47;21.90;;;14.63;;
1402;SDS011;696;48.546;9.896;2022-11-11T17:12:00;25.08;;;15.20;;
1402;SDS011;696;48.546;9.896;2022-11-11T17:14:26;22.58;;;13.35;;
1402;SDS011;696;48.546;9.896;2022-11-11T17:16:53;20.67;;;12.60;;
1402;SDS011;696;48.546;9.896;2022-11-11T17:19:18;19.80;;;12.73;;
1402;SDS011;696;48.546;9.896;2022-11-11T17:21:45;14.40;;;10.45;;
1402;SDS011;696;48.546;9.896;2022-11-11T17:24:11;19.52;;;11.52;;
1402;SDS011;696;48.546;9.896;2022-11-11T17:26:38;18.52;;;11.15;;
1402;SDS011;696;48.546;9.896;2022-11-11T17:29:04;16.95;;;10.35;;
1402;SDS011;696;48.546;9.896;2022-11-11T17:31:29;17.48;;;10.60;;
1402;SDS011;696;48.546;9.896;2022-11-11T17:33:55;14.43;;;10.48;;
1402;SDS011;696;48.546;9.896;2022-11-11T17:36:20;19.52;;;10.82;;
1402;SDS011;696;48.546;9.896;2022-11-11T17:38:45;18.98;;;10.55;;
1402;SDS011;696;48.546;9.896;2022-11-11T17:41:14;17.42;;;11.35;;
1402;SDS011;696;48.546;9.896;2022-11-11T17:43:39;16.50;;;11.70;;
1402;SDS011;696;48.546;9.896;2022-11-11T17:46:04;18.05;;;10.95;;
1402;SDS011;696;48.546;9.896;2022-11-11T17:48:30;21.67;;;10.95;;
1402;SDS011;696;48.546;9.896;2022-11-11T17:50:56;12.65;;;8.77;;
1402;SDS011;696;48.546;9.896;2022-11-11T17:53:22;15.52;;;9.63;;
1402;SDS011;696;48.546;9.896;2022-11-11T17:55:47;13.07;;;8.82;;
1402;SDS011;696;48.546;9.896;2022-11-11T17:58:12;17.23;;;8.68;;
1402;SDS011;696;48.546;9.896;2022-11-11T18:00:38;12.95;;;9.00;;
1402;SDS011;696;48.546;9.896;2022-11-11T18:03:04;11.10;;;8.52;;
1402;SDS011;696;48.546;9.896;2022-11-11T18:05:32;16.80;;;9.25;;
1402;SDS011;696;48.546;9.896;2022-11-11T18:07:58;12.43;;;9.00;;
1402;SDS011;696;48.546;9.896;2022-11-11T18:10:23;15.98;;;9.82;;
1402;SDS011;696;48.546;9.896;2022-11-11T18:12:49;17.23;;;8.93;;
1402;SDS011;696;48.546;9.896;2022-11-11T18:15:14;15.52;;;10.25;;
1402;SDS011;696;48.546;9.896;2022-11-11T18:17:40;16.27;;;8.80;;
1402;SDS011;696;48.546;9.896;2022-11-11T18:20:05;14.65;;;8.73;;
1402;SDS011;696;48.546;9.896;2022-11-11T18:22:31;11.50;;;8.68;;
1402;SDS011;696;48.546;9.896;2022-11-11T18:24:56;15.25;;;9.15;;
1402;SDS011;696;48.546;9.896;2022-11-11T18:27:22;11.48;;;8.02;;
1402;SDS011;696;48.546;9.896;2022-11-11T18:29:47;12.55;;;7.85;;
1402;SDS011;696;48.546;9.896;2022-11-11T18:32:12;10.95;;;7.32;;
1402;SDS011;696;48.546;9.896;2022-11-11T18:34:38;8.95;;;7.03;;
1402;SDS011;696;48.546;9.896;2022-11-11T18:37:04;11.80;;;7.35;;
1402;SDS011;696;48.546;9.896;2022-11-11T18:39:30;12.65;;;6.90;;
1402;SDS011;696;48.546;9.896;2022-11-11T18:41:55;11.68;;;7.15;;
1402;SDS011;696;48.546;9.896;2022-11-11T18:44:20;11.38;;;7.10;;
1402;SDS011;696;48.546;9.896;2022-11-11T18:46:46;13.65;;;7.40;;
1402;SDS011;696;48.546;9.896;2022-11-11T18:49:11;12.65;;;7.78;;